Time;durP1;ratioP1;P1;durP2;ratioP2;P2;SDS_P1;SDS_P2;PMS_P1;PMS_P2;Temp;Humidity;BMP_temperature;BMP_pressure;BME280_temperature;BME280_humidity;BME280_pressure;Samples;Min_cycle;Max_cycle;Signal;HPM_P1;HPM_P2
2021/06/19 00:00:29;;;;;;;8.32;6.82;;;;;;;18.56;92.18;101032.91;1048483;28;20060;-84
2021/06/19 00:01:00;;;;;;;9.43;6.95;;;;;;;18.53;92.21;101034.66;1051755;28;20093;-84
2021/06/19 00:01:32;;;;;;;6.88;6.28;;;;;;;18.50;92.43;101033.84;1048639;28;20044;-84
2021/06/19 00:02:03;;;;;;;9.73;7.25;;;;;;;18.46;92.73;101038.25;1048035;28;20045;-84
2021/06/19 00:02:35;;;;;;;7.68;6.95;;;;;;;18.48;92.41;101040.84;1043710;28;20105;-84
2021/06/19 00:03:07;;;;;;;7.38;6.45;;;;;;;18.51;92.14;101036.44;1044511;28;20084;-86
2021/06/19 00:03:39;;;;;;;6.85;6.25;;;;;;;18.56;92.00;101036.38;1044008;28;20052;-85
2021/06/19 00:04:10;;;;;;;11.10;7.45;;;;;;;18.57;91.84;101034.63;1044679;28;20051;-84
2021/06/19 00:04:42;;;;;;;10.50;7.53;;;;;;;18.62;91.81;101035.41;1050174;28;20048;-84
2021/06/19 00:05:14;;;;;;;8.45;7.50;;;;;;;18.58;91.67;101037.22;1052706;28;20515;-84
2021/06/19 00:05:46;;;;;;;7.95;7.25;;;;;;;18.55;91.94;101047.75;1052745;28;20059;-84
2021/06/19 00:06:17;;;;;;;8.73;7.45;;;;;;;18.60;92.23;101045.03;1056326;28;20458;-84
2021/06/19 00:06:49;;;;;;;8.57;7.75;;;;;;;18.64;92.14;101038.88;1056312;28;20505;-84
2021/06/19 00:07:20;;;;;;;10.27;7.68;;;;;;;18.64;91.79;101038.88;1052403;28;20515;-84
2021/06/19 00:07:52;;;;;;;8.07;7.28;;;;;;;18.65;91.28;101032.72;1052697;28;20102;-85
2021/06/19 00:08:24;;;;;;;10.95;7.53;;;;;;;18.68;91.96;101032.72;1052150;28;20496;-84
2021/06/19 00:08:56;;;;;;;10.73;8.40;;;;;;;18.68;91.95;101027.50;1052222;28;20400;-85
2021/06/19 00:09:27;;;;;;;11.38;7.50;;;;;;;18.68;92.02;101038.84;1052159;28;20130;-85
2021/06/19 00:09:59;;;;;;;10.32;8.60;;;;;;;18.75;91.53;101040.47;1052775;28;20084;-86
2021/06/19 00:10:30;;;;;;;9.77;8.25;;;;;;;18.81;91.73;101039.50;1056580;28;20052;-85
2021/06/19 00:11:02;;;;;;;10.07;7.97;;;;;;;18.79;91.75;101038.69;1056593;28;20051;-84
2021/06/19 00:11:34;;;;;;;13.57;8.77;;;;;;;18.72;92.31;101037.91;1056766;28;20051;-85
2021/06/19 00:12:06;;;;;;;9.98;8.38;;;;;;;18.71;92.46;101037.91;1056400;28;20047;-86
2021/06/19 00:12:38;;;;;;;11.45;8.98;;;;;;;18.78;92.69;101040.44;1056386;28;20047;-86
2021/06/19 00:13:10;;;;;;;12.52;9.38;;;;;;;18.82;92.42;101041.22;1056385;28;20043;-86
2021/06/19 00:13:41;;;;;;;10.60;7.80;;;;;;;18.78;91.94;101042.19;1052846;28;20385;-85
2021/06/19 00:14:13;;;;;;;9.55;8.48;;;;;;;18.83;92.08;101047.34;1056421;28;20055;-85
2021/06/19 00:14:45;;;;;;;11.50;9.60;;;;;;;18.83;92.01;101049.97;1052292;28;20420;-85
2021/06/19 00:15:19;;;;;;;13.27;9.50;;;;;;;18.83;92.05;101037.72;1052180;28;20067;-85
2021/06/19 00:15:51;;;;;;;10.32;9.23;;;;;;;18.90;92.71;101035.88;1047816;28;20534;-85
2021/06/19 00:16:23;;;;;;;10.77;8.80;;;;;;;18.90;92.14;101039.38;1044871;28;20493;-86
2021/06/19 00:16:56;;;;;;;12.95;9.73;;;;;;;18.89;92.27;101042.00;1044973;28;20056;-86
2021/06/19 00:17:28;;;;;;;10.75;9.38;;;;;;;18.90;92.10;101043.75;1048749;28;20059;-86
2021/06/19 00:17:59;;;;;;;12.77;10.43;;;;;;;18.85;92.70;101043.81;1048789;28;20512;-85
2021/06/19 00:18:32;;;;;;;13.20;10.48;;;;;;;18.85;92.71;101035.09;1052965;28;20044;-85
2021/06/19 00:19:03;;;;;;;10.95;9.00;;;;;;;18.86;92.20;101042.06;1056324;28;20047;-85
2021/06/19 00:19:35;;;;;;;10.35;9.23;;;;;;;18.87;92.21;101046.41;1056399;28;20048;-85
2021/06/19 00:20:14;;;;;;;11.38;10.18;;;;;;;18.85;92.52;101045.56;1056305;28;20044;-84
2021/06/19 00:20:46;;;;;;;10.77;9.73;;;;;;;18.86;91.83;101042.06;1052302;28;20056;-85
2021/06/19 00:21:18;;;;;;;10.93;8.23;;;;;;;18.85;91.46;101049.06;1048158;28;20416;-85
2021/06/19 00:21:49;;;;;;;15.52;9.30;;;;;;;18.90;91.82;101047.22;1048570;28;20052;-84
2021/06/19 00:22:21;;;;;;;11.73;9.70;;;;;;;18.87;92.16;101046.41;1048753;28;20056;-85
2021/06/19 00:22:53;;;;;;;15.52;10.60;;;;;;;18.82;92.51;101046.47;1044950;28;20139;-85
2021/06/19 00:23:25;;;;;;;12.55;10.07;;;;;;;18.83;92.79;101048.19;1049216;28;20075;-85
2021/06/19 00:23:57;;;;;;;10.85;9.82;;;;;;;18.84;92.41;101044.72;1048917;28;20063;-85
2021/06/19 00:24:28;;;;;;;10.48;9.48;;;;;;;18.89;92.25;101049.84;1048890;28;20071;-85
2021/06/19 00:24:59;;;;;;;11.48;10.35;;;;;;;18.86;92.29;101048.16;1048855;28;20059;-86
2021/06/19 00:25:31;;;;;;;14.18;10.45;;;;;;;18.88;92.44;101045.50;1049302;28;20486;-84
2021/06/19 00:26:02;;;;;;;12.27;10.85;;;;;;;18.91;92.12;101043.72;1056972;28;20047;-85
2021/06/19 00:26:34;;;;;;;10.65;9.25;;;;;;;18.93;91.82;101043.69;1057207;28;20069;-85
2021/06/19 00:27:06;;;;;;;12.77;9.32;;;;;;;18.93;91.54;101044.53;1057247;28;20054;-85
2021/06/19 00:27:38;;;;;;;9.77;8.77;;;;;;;18.90;91.31;101042.00;1052845;28;20051;-85
2021/06/19 00:28:10;;;;;;;11.73;10.35;;;;;;;18.95;91.95;101042.78;1053662;28;20408;-86
2021/06/19 00:28:41;;;;;;;10.68;9.68;;;;;;;18.88;91.33;101046.38;1057206;28;20062;-84
2021/06/19 00:29:14;;;;;;;11.88;10.52;;;;;;;18.87;91.56;101044.66;1057028;28;20047;-84
2021/06/19 00:29:46;;;;;;;12.30;9.65;;;;;;;18.94;91.75;101042.78;1056805;28;20052;-86
2021/06/19 00:30:18;;;;;;;11.98;10.48;;;;;;;18.94;92.44;101048.03;1057147;28;20047;-86
2021/06/19 00:30:50;;;;;;;11.90;10.40;;;;;;;18.94;92.28;101041.03;1053502;28;20044;-86
2021/06/19 00:31:22;;;;;;;13.27;10.63;;;;;;;18.94;92.96;101046.28;1057231;28;20176;-86
2021/06/19 00:31:53;;;;;;;10.95;9.95;;;;;;;18.94;92.29;101040.16;1052890;28;20087;-86
2021/06/19 00:32:25;;;;;;;19.75;12.07;;;;;;;18.93;92.38;101049.78;1048669;28;20477;-85
2021/06/19 00:32:56;;;;;;;11.65;10.50;;;;;;;18.92;92.23;101048.06;1049133;28;20060;-86
2021/06/19 00:33:28;;;;;;;14.23;10.52;;;;;;;18.95;92.61;101044.53;1049277;28;20420;-85
2021/06/19 00:33:59;;;;;;;15.35;11.82;;;;;;;18.90;91.74;101044.59;1048578;28;20048;-85
2021/06/19 00:34:31;;;;;;;10.25;9.25;;;;;;;18.89;91.96;101042.88;1049289;28;20403;-86
2021/06/19 00:35:05;;;;;;;10.43;9.43;;;;;;;18.83;92.55;101044.72;1049132;28;20085;-85
2021/06/19 00:35:37;;;;;;;10.45;9.32;;;;;;;18.79;92.57;101043.91;1049340;28;20055;-85
2021/06/19 00:36:08;;;;;;;11.13;10.13;;;;;;;18.80;92.77;101049.13;1048646;28;20508;-85
2021/06/19 00:36:40;;;;;;;11.57;9.05;;;;;;;18.76;92.58;101047.44;1045456;28;20052;-85
2021/06/19 00:37:12;;;;;;;10.70;9.60;;;;;;;18.75;92.46;101043.09;1045149;28;20045;-86
2021/06/19 00:37:44;;;;;;;11.35;10.25;;;;;;;18.78;92.00;101050.06;1045219;28;20056;-86
2021/06/19 00:38:15;;;;;;;11.20;10.10;;;;;;;18.76;92.74;101043.94;1045021;28;20053;-86
2021/06/19 00:38:47;;;;;;;10.63;9.27;;;;;;;18.76;92.46;101036.94;1048678;28;20409;-86
2021/06/19 00:39:18;;;;;;;13.05;11.30;;;;;;;18.77;92.63;101048.31;1045276;28;20523;-86
2021/06/19 00:39:50;;;;;;;11.57;10.40;;;;;;;18.78;92.34;101043.06;1044503;28;20428;-86
2021/06/19 00:40:22;;;;;;;11.60;10.40;;;;;;;18.83;92.45;101042.94;1043637;28;20448;-87
2021/06/19 00:40:53;;;;;;;18.50;11.57;;;;;;;18.89;92.92;101037.66;1045011;28;20057;-86
2021/06/19 00:41:26;;;;;;;14.05;11.30;;;;;;;18.96;92.37;101043.66;1049460;28;20049;-85
2021/06/19 00:41:57;;;;;;;14.73;11.43;;;;;;;18.94;92.16;101041.03;1052913;28;20114;-86
2021/06/19 00:42:29;;;;;;;15.77;10.65;;;;;;;19.19;90.06;101035.38;1049218;28;20052;-86
2021/06/19 00:43:03;;;;;;;11.95;10.57;;;;;;;19.17;90.28;101042.41;1052859;28;20059;-85
2021/06/19 00:43:34;;;;;;;12.32;10.90;;;;;;;19.20;90.15;101043.22;1053524;28;20056;-86
2021/06/19 00:44:18;;;;;;;13.40;10.80;;;;;;;19.23;90.27;101047.53;1052951;28;20044;-85
2021/06/19 00:44:50;;;;;;;12.45;10.52;;;;;;;19.21;90.66;101044.06;1048733;28;20048;-85
2021/06/19 00:45:23;;;;;;;18.92;11.13;;;;;;;19.11;90.49;101045.13;1052724;28;20048;-85
2021/06/19 00:45:54;;;;;;;11.82;10.20;;;;;;;19.10;90.20;101046.03;1052865;28;20059;-86
2021/06/19 00:46:26;;;;;;;12.02;9.95;;;;;;;19.09;90.67;101042.53;1053643;28;20051;-86
2021/06/19 00:46:58;;;;;;;13.52;10.52;;;;;;;19.03;90.60;101045.28;1052795;28;20506;-86
2021/06/19 00:47:29;;;;;;;10.73;9.60;;;;;;;18.96;91.08;101047.13;1049334;28;20052;-86
2021/06/19 00:48:06;;;;;;;11.38;9.27;;;;;;;18.93;90.11;101049.78;1052953;28;20055;-86
2021/06/19 00:48:38;;;;;;;12.65;9.88;;;;;;;18.95;90.47;101040.16;1049954;28;20049;-85
2021/06/19 00:49:09;;;;;;;12.60;10.98;;;;;;;19.16;89.59;101045.91;1049968;28;20079;-86
2021/06/19 00:49:41;;;;;;;14.88;11.02;;;;;;;19.09;90.33;101045.16;1052798;28;20488;-86
2021/06/19 00:50:13;;;;;;;16.67;10.82;;;;;;;19.12;90.06;101042.50;1049416;28;20060;-86
2021/06/19 00:50:45;;;;;;;13.85;10.60;;;;;;;19.10;90.59;101041.63;1048657;28;20075;-85
2021/06/19 00:51:17;;;;;;;11.85;10.07;;;;;;;19.08;90.28;101051.31;1049232;28;20052;-86
2021/06/19 00:51:49;;;;;;;10.65;9.55;;;;;;;18.96;90.07;101046.28;1049423;28;20059;-86
2021/06/19 00:52:21;;;;;;;10.85;9.82;;;;;;;18.92;90.86;101040.19;1049410;28;20067;-87
2021/06/19 00:52:52;;;;;;;15.20;10.57;;;;;;;18.95;90.70;101048.03;1048518;28;20044;-86
2021/06/19 00:53:24;;;;;;;10.45;9.32;;;;;;;18.89;90.81;101039.38;1049158;28;20055;-85
2021/06/19 00:53:56;;;;;;;11.65;9.45;;;;;;;18.87;91.27;101036.78;1052695;28;20052;-85
2021/06/19 00:54:28;;;;;;;11.15;9.95;;;;;;;18.89;91.59;101045.50;1049310;28;20083;-86
2021/06/19 00:55:00;;;;;;;12.18;10.23;;;;;;;18.83;91.40;101047.34;1053164;28;20074;-87
2021/06/19 00:55:32;;;;;;;13.35;11.07;;;;;;;18.93;91.68;101041.91;1052952;28;20052;-86
2021/06/19 00:56:04;;;;;;;12.63;10.13;;;;;;;18.93;90.49;101041.91;1049358;28;20056;-87
2021/06/19 00:56:37;;;;;;;10.32;9.05;;;;;;;18.98;90.80;101042.72;1052626;28;20059;-86
2021/06/19 00:57:10;;;;;;;16.77;9.43;;;;;;;19.18;88.08;101039.78;1049643;28;20052;-86
2021/06/19 00:57:41;;;;;;;11.55;9.73;;;;;;;19.23;88.26;101037.94;1053764;28;20055;-86
2021/06/19 00:58:13;;;;;;;12.18;9.82;;;;;;;19.14;89.30;101040.69;1052815;28;20511;-86
2021/06/19 00:58:45;;;;;;;12.25;9.13;;;;;;;19.08;89.50;101042.56;1048742;28;20048;-86
2021/06/19 00:59:17;;;;;;;9.18;8.23;;;;;;;19.00;89.62;101040.94;1049041;28;20044;-87
2021/06/19 00:59:48;;;;;;;13.82;9.18;;;;;;;19.03;89.88;101043.50;1049310;28;20127;-86
2021/06/19 01:00:21;;;;;;;9.93;8.93;;;;;;;19.14;88.54;101045.09;1049213;28;20420;-86
2021/06/19 01:00:52;;;;;;;10.57;8.43;;;;;;;19.23;88.09;101040.56;1052296;28;20048;-87
2021/06/19 01:01:24;;;;;;;10.13;8.20;;;;;;;19.21;88.89;101042.31;1051536;28;20048;-87
2021/06/19 01:01:56;;;;;;;12.88;8.88;;;;;;;19.14;88.87;101038.06;1053035;28;20055;-86
2021/06/19 01:02:29;;;;;;;9.00;8.10;;;;;;;19.06;89.70;101046.09;1048616;28;20079;-86
2021/06/19 01:03:01;;;;;;;10.35;8.18;;;;;;;19.14;89.07;101047.72;1045198;28;20049;-86
2021/06/19 01:03:32;;;;;;;11.50;8.30;;;;;;;19.11;89.24;101042.50;1045098;28;20045;-86
2021/06/19 01:04:06;;;;;;;10.75;9.20;;;;;;;18.90;89.95;101039.38;1049293;28;20074;-86
2021/06/19 01:04:37;;;;;;;12.32;8.95;;;;;;;18.89;90.45;101040.25;1053487;28;20051;-86
2021/06/19 01:05:10;;;;;;;9.20;8.35;;;;;;;18.86;90.28;101040.31;1057183;28;20043;-86
2021/06/19 01:05:43;;;;;;;11.55;8.40;;;;;;;18.91;90.97;101035.00;1057213;28;20047;-86
2021/06/19 01:06:15;;;;;;;8.82;8.00;;;;;;;18.89;91.07;101042.88;1057026;28;20051;-85
2021/06/19 01:06:47;;;;;;;9.05;7.53;;;;;;;18.87;90.45;101041.16;1052905;28;20419;-87
2021/06/19 01:07:19;;;;;;;9.20;8.25;;;;;;;18.89;90.65;101044.63;1053028;28;20056;-87
2021/06/19 01:07:50;;;;;;;10.52;7.43;;;;;;;18.86;90.85;101042.06;1049044;28;20045;-87
2021/06/19 01:08:22;;;;;;;9.07;7.30;;;;;;;18.82;90.48;101037.75;1049157;28;20044;-86
2021/06/19 01:08:53;;;;;;;10.20;6.95;;;;;;;18.79;89.93;101041.28;1052730;28;20142;-87
2021/06/19 01:09:25;;;;;;;8.10;7.07;;;;;;;18.96;89.07;101038.41;1052668;28;20058;-87
2021/06/19 01:09:56;;;;;;;13.02;7.47;;;;;;;18.96;89.17;101036.63;1053153;28;20503;-86
2021/06/19 01:10:28;;;;;;;9.13;7.65;;;;;;;18.97;89.87;101035.75;1052873;28;20062;-86
2021/06/19 01:11:00;;;;;;;9.38;7.57;;;;;;;18.85;90.10;101035.09;1053183;28;20400;-86
2021/06/19 01:11:33;;;;;;;8.48;6.50;;;;;;;18.79;90.13;101036.06;1056895;28;20506;-86
2021/06/19 01:12:05;;;;;;;11.00;7.50;;;;;;;18.74;90.37;101036.13;1053390;28;20047;-86
2021/06/19 01:12:41;;;;;;;9.20;8.00;;;;;;;18.79;90.68;101039.53;1056940;28;20043;-86
2021/06/19 01:13:12;;;;;;;8.73;6.90;;;;;;;18.79;90.16;101038.69;1057057;28;20083;-87
2021/06/19 01:13:44;;;;;;;7.70;7.00;;;;;;;18.80;89.38;101037.78;1054012;28;20059;-87
2021/06/19 01:14:15;;;;;;;10.27;6.82;;;;;;;18.87;88.62;101036.78;1052620;28;20051;-87
2021/06/19 01:14:47;;;;;;;7.90;7.03;;;;;;;18.96;88.95;101034.03;1048683;28;20057;-86
2021/06/19 01:15:18;;;;;;;8.25;6.95;;;;;;;18.88;89.96;101040.25;1049044;28;20060;-87
2021/06/19 01:15:50;;;;;;;7.97;6.55;;;;;;;18.93;88.86;101034.06;1048862;28;20048;-87
2021/06/19 01:16:46;;;;;;;9.07;6.57;;;;;;;18.93;89.03;101036.69;1048507;28;20519;-87
2021/06/19 01:17:19;;;;;;;6.97;6.25;;;;;;;18.84;89.93;101046.47;1048426;28;20048;-87
2021/06/19 01:17:50;;;;;;;8.27;6.78;;;;;;;18.83;90.11;101037.72;1048522;28;20053;-87
2021/06/19 01:18:22;;;;;;;13.77;6.93;;;;;;;18.93;88.31;101044.53;1052582;28;20051;-85
2021/06/19 01:18:53;;;;;;;9.45;6.13;;;;;;;18.92;88.86;101037.56;1052692;28;20056;-86
2021/06/19 01:19:25;;;;;;;7.00;6.30;;;;;;;18.93;89.13;101035.81;1053217;28;20052;-86
2021/06/19 01:20:04;;;;;;;10.90;6.65;;;;;;;18.97;89.76;101042.75;1053296;28;20071;-85
2021/06/19 01:20:36;;;;;;;11.13;6.43;;;;;;;18.89;90.10;101037.66;1056797;28;20043;-86
2021/06/19 01:21:19;;;;;;;7.13;6.43;;;;;;;18.86;89.83;101042.06;1056994;28;20054;-87
2021/06/19 01:21:53;;;;;;;7.63;6.32;;;;;;;18.99;88.19;101043.56;1056052;28;20601;-84
2021/06/19 01:22:25;;;;;;;6.82;5.85;;;;;;;19.04;88.03;101039.13;1056859;28;20048;-87
2021/06/19 01:22:57;;;;;;;7.55;5.32;;;;;;;19.07;87.90;101041.72;1056894;28;20593;-86
2021/06/19 01:23:28;;;;;;;9.32;5.97;;;;;;;19.01;88.17;101044.44;1053583;28;20052;-86
2021/06/19 01:24:00;;;;;;;6.72;5.93;;;;;;;19.02;88.04;101048.78;1056860;28;20051;-86
2021/06/19 01:24:32;;;;;;;5.95;5.43;;;;;;;19.02;88.01;101049.66;1056858;28;20050;-85
2021/06/19 01:25:07;;;;;;;9.40;5.65;;;;;;;18.99;89.16;101047.06;1057080;28;20054;-86
2021/06/19 01:25:39;;;;;;;7.80;5.20;;;;;;;18.99;88.65;101048.81;1057040;28;20047;-86
2021/06/19 01:26:13;;;;;;;9.13;5.80;;;;;;;19.09;86.96;101041.69;1052801;28;20480;-84
2021/06/19 01:26:45;;;;;;;8.10;5.30;;;;;;;19.14;87.20;101045.94;1052576;28;20063;-86
2021/06/19 01:27:16;;;;;;;8.50;5.72;;;;;;;19.07;87.64;101044.34;1049382;28;20075;-87
2021/06/19 01:27:52;;;;;;;8.15;5.80;;;;;;;19.09;87.26;101049.53;1052752;28;20075;-86
2021/06/19 01:28:24;;;;;;;8.90;5.80;;;;;;;18.94;88.29;101048.03;1054035;28;20468;-86
2021/06/19 01:28:57;;;;;;;8.20;5.70;;;;;;;18.90;88.31;101042.00;1056916;28;20050;-87
2021/06/19 01:29:28;;;;;;;7.88;5.43;;;;;;;18.89;88.75;101042.88;1056972;28;20044;-88
2021/06/19 01:30:03;;;;;;;6.47;5.80;;;;;;;18.80;89.02;101043.88;1052418;28;20067;-87
2021/06/19 01:30:34;;;;;;;7.72;5.20;;;;;;;18.79;89.11;101046.53;1052755;28;20059;-87
2021/06/19 01:31:06;;;;;;;8.68;5.38;;;;;;;18.81;88.51;101055.22;1049242;28;20539;-86
2021/06/19 01:31:39;;;;;;;6.50;5.38;;;;;;;18.91;89.16;101051.59;1053586;28;20462;-86
2021/06/19 01:32:11;;;;;;;7.30;4.57;;;;;;;18.85;89.21;101053.44;1050794;28;20056;-86
2021/06/19 01:32:42;;;;;;;7.68;5.70;;;;;;;18.84;88.99;101049.09;1048424;28;20539;-86
2021/06/19 01:33:16;;;;;;;5.88;5.32;;;;;;;18.83;89.38;101056.06;1043906;28;20049;-86
2021/06/19 01:33:49;;;;;;;7.13;5.32;;;;;;;18.77;89.50;101046.53;1046680;28;20048;-86
2021/06/19 01:34:20;;;;;;;7.28;5.25;;;;;;;18.70;89.39;101050.16;1048708;28;20147;-86
2021/06/19 01:34:52;;;;;;;7.68;5.63;;;;;;;18.79;89.29;101050.03;1048564;28;20094;-86
2021/06/19 01:35:23;;;;;;;7.00;5.55;;;;;;;18.78;89.97;101048.31;1049151;28;20070;-86
2021/06/19 01:35:55;;;;;;;6.80;5.53;;;;;;;18.71;90.03;101051.00;1052670;28;20060;-86
2021/06/19 01:36:26;;;;;;;6.38;5.18;;;;;;;18.73;89.62;101044.03;1052600;28;20056;-86
2021/06/19 01:36:58;;;;;;;7.00;5.35;;;;;;;18.71;90.51;101051.00;1052952;28;20052;-86
2021/06/19 01:37:29;;;;;;;6.22;5.60;;;;;;;18.84;88.74;101049.09;1052728;28;20052;-86
2021/06/19 01:38:01;;;;;;;5.63;5.13;;;;;;;18.83;88.01;101045.56;1052794;28;20074;-87
2021/06/19 01:38:38;;;;;;;5.85;5.28;;;;;;;18.82;88.85;101045.59;1048918;28;20052;-86
2021/06/19 01:39:10;;;;;;;6.93;5.35;;;;;;;18.85;88.26;101048.19;1049695;28;20051;-85
2021/06/19 01:39:42;;;;;;;9.48;5.63;;;;;;;18.83;89.33;101045.56;1052649;28;20044;-87
2021/06/19 01:40:16;;;;;;;5.85;5.35;;;;;;;18.77;89.54;101046.53;1053758;28;20056;-87
2021/06/19 01:40:49;;;;;;;6.38;5.45;;;;;;;18.84;89.30;101044.72;1052521;28;20062;-85
2021/06/19 01:41:21;;;;;;;7.75;5.72;;;;;;;18.90;88.98;101049.00;1048430;28;20477;-86
2021/06/19 01:41:52;;;;;;;6.70;5.82;;;;;;;18.82;89.56;101046.47;1049755;28;20044;-85
2021/06/19 01:42:24;;;;;;;6.88;5.88;;;;;;;18.84;89.46;101047.34;1052628;28;20063;-86
2021/06/19 01:42:57;;;;;;;6.35;5.75;;;;;;;18.81;89.51;101044.75;1053123;28;20048;-86
2021/06/19 01:43:28;;;;;;;6.65;5.75;;;;;;;18.82;89.89;101050.84;1053779;28;20054;-85
2021/06/19 01:44:04;;;;;;;5.45;4.95;;;;;;;18.78;89.70;101050.06;1052592;28;20056;-86
2021/06/19 01:44:36;;;;;;;6.15;5.38;;;;;;;18.76;89.66;101054.44;1048473;28;20137;-85
2021/06/19 01:45:12;;;;;;;6.15;5.65;;;;;;;18.74;89.92;101050.97;1045183;28;20051;-85
2021/06/19 01:45:44;;;;;;;6.50;5.40;;;;;;;18.74;89.43;101045.75;1045859;28;20048;-86
2021/06/19 01:46:16;;;;;;;7.40;5.57;;;;;;;18.76;90.36;101051.81;1045485;28;20053;-86
2021/06/19 01:46:47;;;;;;;5.93;5.43;;;;;;;18.79;89.59;101047.41;1049672;28;20406;-85
2021/06/19 01:47:19;;;;;;;9.88;5.68;;;;;;;18.71;90.08;101048.41;1048919;28;20083;-85
2021/06/19 01:47:51;;;;;;;8.23;6.35;;;;;;;18.79;89.11;101054.41;1053000;28;20466;-85
2021/06/19 01:48:22;;;;;;;7.82;6.07;;;;;;;18.80;89.83;101056.13;1052596;28;20048;-85
2021/06/19 01:48:54;;;;;;;6.38;5.78;;;;;;;18.88;89.26;101054.25;1048933;28;20056;-85
2021/06/19 01:49:35;;;;;;;6.65;6.05;;;;;;;18.83;89.73;101055.19;1052689;28;20059;-86
2021/06/19 01:50:08;;;;;;;5.18;4.75;;;;;;;18.78;89.46;101050.91;1054270;28;20404;-86
2021/06/19 01:50:40;;;;;;;5.72;5.25;;;;;;;18.78;88.72;101055.31;1054615;28;20060;-86
2021/06/19 01:51:12;;;;;;;5.20;4.80;;;;;;;18.84;89.32;101054.34;1056839;28;20047;-85
2021/06/19 01:51:43;;;;;;;5.60;5.15;;;;;;;18.80;89.69;101048.25;1056667;28;20484;-85
2021/06/19 01:52:19;;;;;;;7.20;5.38;;;;;;;18.74;89.68;101050.97;1056817;28;20051;-85
2021/06/19 01:52:52;;;;;;;6.22;5.72;;;;;;;18.71;89.30;101051.00;1056758;28;20527;-86
2021/06/19 01:53:24;;;;;;;8.05;5.88;;;;;;;18.72;89.33;101051.00;1052611;28;20171;-85
2021/06/19 01:53:56;;;;;;;8.90;5.57;;;;;;;18.75;89.36;101050.94;1048460;28;20045;-86
2021/06/19 01:54:27;;;;;;;7.97;5.60;;;;;;;18.77;88.93;101050.91;1045050;28;20053;-86
2021/06/19 01:54:59;;;;;;;6.55;5.30;;;;;;;18.77;88.98;101056.16;1048977;28;20396;-86
2021/06/19 01:55:30;;;;;;;7.13;5.72;;;;;;;18.74;88.40;101053.59;1053265;28;20055;-85
2021/06/19 01:56:01;;;;;;;5.40;4.90;;;;;;;18.70;88.93;101051.91;1052578;28;20040;-85
2021/06/19 01:56:33;;;;;;;11.25;5.63;;;;;;;18.69;89.09;101053.66;1048890;28;20443;-83
2021/06/19 01:57:06;;;;;;;6.45;5.43;;;;;;;18.70;89.31;101050.16;1048285;28;20045;-86
2021/06/19 01:57:38;;;;;;;7.15;5.38;;;;;;;18.66;89.93;101044.94;1045078;28;20045;-86
2021/06/19 01:58:11;;;;;;;5.70;5.20;;;;;;;18.63;89.66;101045.88;1044956;28;20052;-85
2021/06/19 01:58:43;;;;;;;6.53;5.93;;;;;;;18.68;89.52;101049.31;1049345;28;20051;-86
2021/06/19 01:59:14;;;;;;;7.00;6.05;;;;;;;18.74;89.65;101043.97;1053272;28;20508;-86
2021/06/19 01:59:46;;;;;;;6.40;5.10;;;;;;;18.68;89.97;101043.22;1053154;28;20048;-86
2021/06/19 02:00:20;;;;;;;7.28;5.63;;;;;;;18.68;89.45;101044.09;1052485;28;20543;-85
2021/06/19 02:00:51;;;;;;;6.78;6.18;;;;;;;18.68;89.89;101044.09;1048413;28;20131;-85
2021/06/19 02:01:23;;;;;;;6.82;5.88;;;;;;;18.71;89.60;101043.16;1048399;28;20052;-84
2021/06/19 02:01:58;;;;;;;6.03;5.53;;;;;;;18.71;88.94;101043.16;1049298;28;20060;-85
2021/06/19 02:02:30;;;;;;;6.65;5.68;;;;;;;18.73;90.62;101047.50;1049158;28;20052;-85
2021/06/19 02:03:05;;;;;;;6.63;5.78;;;;;;;18.67;89.98;101036.22;1053426;28;20243;-85
2021/06/19 02:03:37;;;;;;;6.45;5.78;;;;;;;18.63;89.63;101043.25;1056779;28;20040;-86
2021/06/19 02:04:08;;;;;;;6.45;5.95;;;;;;;18.83;88.94;101042.09;1053722;28;20048;-84
2021/06/19 02:04:40;;;;;;;6.38;5.60;;;;;;;18.85;88.60;101048.19;1052316;28;20051;-86
2021/06/19 02:05:13;;;;;;;6.80;5.45;;;;;;;18.76;89.37;101042.19;1048271;28;20060;-85
2021/06/19 02:05:44;;;;;;;6.75;5.45;;;;;;;18.71;89.61;101043.16;1045018;28;20044;-86
2021/06/19 02:06:16;;;;;;;5.55;5.05;;;;;;;18.69;89.29;101042.31;1044999;28;20060;-85
2021/06/19 02:06:48;;;;;;;6.32;5.60;;;;;;;18.74;88.81;101040.50;1044647;28;20049;-85
2021/06/19 02:07:19;;;;;;;6.45;5.85;;;;;;;18.76;88.35;101046.56;1048948;28;20055;-85
2021/06/19 02:07:55;;;;;;;6.32;5.72;;;;;;;18.80;88.96;101050.88;1052520;28;20048;-85
2021/06/19 02:08:26;;;;;;;7.32;5.35;;;;;;;18.71;88.93;101043.16;1049366;28;20048;-85
2021/06/19 02:09:08;;;;;;;6.00;5.50;;;;;;;18.72;89.33;101040.53;1049452;28;20044;-85
2021/06/19 02:09:41;;;;;;;5.82;5.25;;;;;;;18.68;89.24;101040.59;1052474;28;20052;-86
2021/06/19 02:10:13;;;;;;;6.05;5.50;;;;;;;18.70;89.62;101042.28;1050615;28;20400;-85
2021/06/19 02:10:45;;;;;;;6.70;5.80;;;;;;;18.69;89.22;101037.09;1050423;28;20509;-85
2021/06/19 02:11:16;;;;;;;5.85;5.35;;;;;;;18.64;89.51;101049.34;1048211;28;20051;-85
2021/06/19 02:11:48;;;;;;;6.05;5.50;;;;;;;18.60;89.59;101045.91;1048969;28;20048;-86
2021/06/19 02:12:20;;;;;;;5.75;5.28;;;;;;;18.55;90.11;101042.50;1048984;28;20048;-85
2021/06/19 02:12:51;;;;;;;5.88;5.38;;;;;;;18.57;90.74;101045.97;1048694;28;20099;-86
2021/06/19 02:13:23;;;;;;;5.60;5.07;;;;;;;18.53;90.26;101049.50;1048353;28;20049;-85
2021/06/19 02:13:54;;;;;;;6.07;5.57;;;;;;;18.52;90.98;101043.41;1044739;28;20057;-85
2021/06/19 02:14:26;;;;;;;6.35;5.72;;;;;;;18.50;90.99;101042.56;1044675;28;20052;-86
2021/06/19 02:14:57;;;;;;;6.00;5.50;;;;;;;18.49;90.59;101045.19;1044594;28;20053;-86
2021/06/19 02:15:29;;;;;;;9.00;5.60;;;;;;;18.54;90.18;101041.63;1048630;28;20412;-86
2021/06/19 02:16:03;;;;;;;5.30;4.78;;;;;;;18.55;90.31;101037.28;1048811;28;20095;-86
2021/06/19 02:16:34;;;;;;;5.90;5.40;;;;;;;18.57;89.79;101045.97;1049156;28;20044;-86
2021/06/19 02:17:06;;;;;;;8.13;5.78;;;;;;;18.65;89.55;101043.22;1048152;28;20067;-86
2021/06/19 02:17:37;;;;;;;6.32;5.72;;;;;;;18.62;89.83;101038.91;1049011;28;20055;-84
2021/06/19 02:18:09;;;;;;;7.35;5.70;;;;;;;18.59;90.03;101043.31;1048908;28;20049;-85
2021/06/19 02:18:40;;;;;;;6.05;5.55;;;;;;;18.54;89.70;101044.25;1048394;28;20049;-85
2021/06/19 02:19:12;;;;;;;5.10;4.60;;;;;;;18.55;90.01;101045.13;1048633;28;20053;-86
2021/06/19 02:19:44;;;;;;;6.07;5.47;;;;;;;18.56;89.59;101041.63;1048815;28;20055;-85
2021/06/19 02:20:18;;;;;;;9.40;6.38;;;;;;;18.60;89.77;101038.03;1048821;28;20048;-85
2021/06/19 02:20:53;;;;;;;6.22;5.35;;;;;;;18.63;89.59;101038.00;1052414;28;20051;-86
2021/06/19 02:21:25;;;;;;;5.55;4.95;;;;;;;18.61;89.69;101041.56;1053809;28;20052;-86
2021/06/19 02:21:56;;;;;;;6.93;5.78;;;;;;;18.66;89.94;101039.69;1056750;28;20395;-85
2021/06/19 02:22:27;;;;;;;6.03;5.55;;;;;;;18.68;89.45;101048.47;1056806;28;20071;-85
2021/06/19 02:22:59;;;;;;;7.55;5.47;;;;;;;18.68;89.49;101049.31;1052887;28;20048;-86
2021/06/19 02:23:31;;;;;;;5.60;5.10;;;;;;;18.64;88.69;101046.72;1056631;28;20044;-85
2021/06/19 02:24:02;;;;;;;5.53;5.03;;;;;;;18.62;89.67;101049.38;1052433;28;20056;-85
2021/06/19 02:24:34;;;;;;;6.32;5.78;;;;;;;18.61;90.03;101057.28;1053055;28;20127;-85
2021/06/19 02:25:08;;;;;;;6.53;5.60;;;;;;;18.58;90.20;101059.94;1052517;28;20051;-85
2021/06/19 02:25:40;;;;;;;6.82;6.03;;;;;;;18.55;90.64;101055.63;1048958;28;20177;-85
2021/06/19 02:26:11;;;;;;;8.52;5.75;;;;;;;18.57;91.08;101053.81;1048225;28;20535;-86
2021/06/19 02:26:43;;;;;;;6.32;5.38;;;;;;;18.54;90.20;101053.84;1045074;28;20060;-86
2021/06/19 02:27:15;;;;;;;7.13;6.43;;;;;;;18.63;90.59;101056.34;1044577;28;20053;-86
2021/06/19 02:27:52;;;;;;;7.10;6.43;;;;;;;18.67;89.64;101054.56;1044621;28;20063;-85
2021/06/19 02:28:25;;;;;;;8.07;5.45;;;;;;;18.71;89.22;101053.63;1049511;28;20052;-83
2021/06/19 02:28:56;;;;;;;7.18;6.57;;;;;;;18.75;88.93;101055.34;1053932;28;20413;-85
2021/06/19 02:29:28;;;;;;;8.52;7.00;;;;;;;18.79;88.79;101052.66;1053806;28;20099;-85
2021/06/19 02:30:00;;;;;;;7.10;6.43;;;;;;;18.86;88.60;101055.16;1056404;28;20047;-85